• Join FlightAware (Why Join?)
  • Login
  • US Flag 
 
10:50PM EST


 

Airport Tracker/Info


-or-


 

Live Flight TrackerFlight Track Log ✈ N3738B ✈ 25-Apr-2013 ✈ KPHL - KATL

Flight Track Log - Related Links

Times and Time Zones

All times are in EDT time to prevent confusion due to time zone crossing. See the N3738B flight status page for this flight to view local times or setup timezone preferences in your user account.

Time Position Orientation Groundspeed Altitude Reporting Facility
EDT Latitude Longitude Course Direction KTS MPH feet Rate Location/Type
07:28PM 39.8667 -75.2833 270° West 170 196 800  Level Philadelphia TRACON
07:31PM 39.8395 -75.6190 255° West  Level FlightAware Approximate
07:31PM 39.8386 -75.4697 259° West 239 275 7,200  Level New York Center
07:32PM 39.8333 -75.7492 270° West  Level FlightAware Approximate
07:32PM 39.8372 -75.5561 269° West 258 297 10,000  Level New York Center
07:33PM 39.8176 -75.8783 258° West  Level FlightAware Approximate
07:33PM 39.8383 -75.6806 271° West 299 344 10,600  Level New York Center
07:34PM 39.8000 -76.0070 270° West  Level FlightAware Approximate
07:34PM 39.8356 -75.7964 268° West 341 392 13,700  Level New York Center
07:35PM 39.8233 -75.9308 263° West 346 398 16,500 2,520 Climbing New York Center
07:36PM 39.8100 -76.0489 262° West 362 417 18,800 2,160 Climbing New York Center
07:37PM 39.7933 -76.1853 261° West 374 430 21,000 1,860 Climbing New York Center
07:39PM 39.6833 -76.4867 245° Southwest 386 444 25,200 1,740 Climbing Washington Center
07:40PM 39.6281 -76.6181 241° Southwest 398 458 26,900 1,560 Climbing Washington Center
07:41PM 39.5725 -76.7628 244° Southwest 406 467 28,400 1,800 Climbing Washington Center
07:42PM 39.5319 -76.8722 244° Southwest 400 460 30,600 1,860 Climbing Washington Center
07:43PM 39.4806 -76.9922 241° Southwest 395 455 32,200 1,620 Climbing Washington Center
07:44PM 39.3981 -77.0819 220° Southwest 389 448 33,900 1,320 Climbing Washington Center
07:45PM 39.3158 -77.1664 218° Southwest 383 441 34,900 900 Climbing Washington Center
07:46PM 39.2356 -77.2503 219° Southwest 383 441 35,700 720 Climbing Washington Center
07:47PM 39.1508 -77.3394 219° Southwest 388 447 36,400 600 Climbing Washington Center
07:48PM 39.0642 -77.4281 218° Southwest 388 447 37,000 540 Climbing Washington Center
07:49PM 38.9792 -77.5169 219° Southwest 388 447 37,500 480 Climbing Washington Center
07:50PM 38.8817 -77.6156 218° Southwest 399 459 38,000 240 Climbing Washington Center
07:51PM 38.7989 -77.7039 220° Southwest 396 456 38,000  Level Washington Center
07:52PM 38.7056 -77.7997 219° Southwest 405 466 38,000  Level Washington Center
07:53PM 38.6225 -77.8956 222° Southwest 411 473 38,000  Level Washington Center
07:54PM 38.5578 -78.0078 234° Southwest 405 466 38,000  Level Washington Center
07:55PM 38.4950 -78.1172 234° Southwest 400 460 38,000  Level Washington Center
07:56PM 38.4278 -78.2314 233° Southwest 400 460 38,000  Level Washington Center
07:57PM 38.3608 -78.3431 233° Southwest 400 460 38,000  Level Washington Center
07:58PM 38.2933 -78.4542 232° Southwest 400 460 38,000  Level Washington Center
07:59PM 38.2367 -78.5550 234° Southwest 406 467 38,000  Level Washington Center
08:00PM 38.1628 -78.6817 233° Southwest 408 470 38,000  Level Washington Center
08:01PM 38.0972 -78.7897 232° Southwest 408 470 38,000  Level Washington Center
08:02PM 38.0297 -78.9003 232° Southwest 408 470 38,000  Level Washington Center
08:03PM 37.9619 -79.0106 232° Southwest 408 470 38,000  Level Washington Center
08:04PM 37.9028 -79.1106 233° Southwest 403 464 38,000  Level Washington Center
08:05PM 37.8267 -79.2147 227° Southwest 403 464 38,000  Level Washington Center
08:06PM 37.7547 -79.3164 228° Southwest 403 464 38,000  Level Washington Center
08:07PM 37.6783 -79.4200 227° Southwest 403 464 38,000  Level Washington Center
08:08PM 37.5953 -79.5339 227° Southwest 403 464 38,000  Level Washington Center
08:09PM 37.5189 -79.6372 227° Southwest 403 464 38,000  Level Washington Center
08:11PM 37.3650 -79.8481 227° Southwest 409 471 38,000  Level Atlanta Center
08:12PM 37.2892 -79.9486 227° Southwest 403 464 38,000  Level Atlanta Center
08:13PM 37.2133 -80.0517 227° Southwest 403 464 38,000  Level Atlanta Center
08:14PM 37.1453 -80.1411 226° Southwest 403 464 38,000  Level Atlanta Center
08:15PM 37.0694 -80.2436 227° Southwest 403 464 38,000  Level Atlanta Center
08:16PM 36.9953 -80.3458 228° Southwest 403 464 38,000  Level Atlanta Center
08:17PM 36.9231 -80.4403 226° Southwest 403 464 38,000  Level Atlanta Center
08:18PM 36.8408 -80.5478 226° Southwest 403 464 38,000  Level Atlanta Center
08:19PM 36.7644 -80.6494 227° Southwest 403 464 38,000  Level Atlanta Center
08:20PM 36.6961 -80.7456 228° Southwest 395 455 38,000  Level Atlanta Center
08:21PM 36.6214 -80.8417 226° Southwest 389 448 38,000  Level Atlanta Center
08:22PM 36.5469 -80.9431 228° Southwest 389 448 38,000  Level Atlanta Center
08:23PM 36.4803 -81.0308 227° Southwest 384 442 38,000  Level Atlanta Center
08:24PM 36.4033 -81.1317 227° Southwest 389 448 38,000  Level Atlanta Center
08:25PM 36.3306 -81.2297 227° Southwest 389 448 38,000  Level Atlanta Center
08:26PM 36.2536 -81.3300 226° Southwest 389 448 38,000  Level Atlanta Center
08:27PM 36.1767 -81.4306 227° Southwest 400 460 38,000  Level Atlanta Center
08:28PM 36.0994 -81.5306 226° Southwest 400 460 38,000  Level Atlanta Center
08:29PM 36.0222 -81.6306 226° Southwest 405 466 38,000  Level Atlanta Center
08:30PM 35.9447 -81.7328 227° Southwest 405 466 38,000 -420 Level Atlanta Center
08:31PM 35.8672 -81.8300 225° Southwest 405 466 37,200 -900 Descending Atlanta Center
08:32PM 35.7919 -81.9317 228° Southwest 405 466 36,200 -960 Descending Atlanta Center
08:33PM 35.7061 -82.0389 225° Southwest 413 475 35,300 -600 Descending Atlanta Center
08:34PM 35.6283 -82.1378 226° Southwest 407 468 35,000 -240 Descending Atlanta Center
08:35PM 35.5506 -82.2367 226° Southwest 406 467 34,900 -600 Descending Atlanta Center
08:36PM 35.4728 -82.3353 226° Southwest 406 467 33,900 -1,020 Descending Atlanta Center
08:37PM 35.3928 -82.4364 226° Southwest 406 467 32,900 -960 Descending Atlanta Center
08:38PM 35.3128 -82.5372 226° Southwest 406 467 32,000 -480 Descending Atlanta Center
08:39PM 35.2325 -82.6325 224° Southwest 412 474 32,000  Level Atlanta Center
08:40PM 35.1522 -82.7331 226° Southwest 406 467 32,000 -480 Level Atlanta Center
08:41PM 35.0719 -82.8333 226° Southwest 411 473 31,100 -960 Descending Atlanta Center
08:42PM 34.9872 -82.9411 226° Southwest 416 479 30,100 -900 Descending Atlanta Center
08:43PM 34.9131 -83.0306 225° Southwest 421 484 29,300 -900 Descending Atlanta Center
08:44PM 34.8303 -83.1328 225° Southwest 426 490 28,300 -1,020 Descending Atlanta Center
08:45PM 34.7475 -83.2375 226° Southwest 426 490 27,300 -1,020 Descending Atlanta Center
08:46PM 34.6583 -83.3342 222° Southwest 431 496 26,300 -1,560 Descending Atlanta Center
08:47PM 34.5650 -83.4158 216° Southwest 426 490 24,200 -2,520 Descending Atlanta Center
08:48PM 34.4797 -83.4944 217° Southwest 401 461 21,300 -2,700 Descending Atlanta Center
08:49PM 34.3903 -83.5756 217° Southwest 376 433 18,800 -2,220 Descending Atlanta Center
08:50PM 34.3092 -83.6464 216° Southwest 363 418 16,900 -2,100 Descending Atlanta Center
08:51PM 34.2281 -83.7197 217° Southwest 363 418 14,600 -2,220 Descending Atlanta Center
08:52PM 34.1508 -83.7903 217° Southwest 363 418 12,500 -1,320 Descending Atlanta Center
08:53PM 34.0781 -83.8533 216° Southwest 349 402 12,000 -1,020 Descending Atlanta Center
08:54PM 34.0333 -83.9000 221° Southwest 288 331 10,700 -1,560 Descending Atlanta TRACON
08:55PM 33.9667 -83.9500 212° Southwest 292 336 9,200 -900 Descending Atlanta TRACON
08:56PM 33.8833 -83.9667 189° South 284 327 9,000 -180 Descending Atlanta TRACON
08:57PM 33.8000 -83.9667 180° South 273 314 8,900 -360 Descending Atlanta TRACON
08:58PM 33.7317 -83.9764 187° South 270 311 8,300 -720 Descending Atlanta Center
08:59PM 33.6711 -83.9814 184° South 237 273 7,400 -780 Descending Atlanta Center
09:01PM 33.6333 -84.0833 246° West 190 219 6,100 -780 Descending Atlanta TRACON
09:02PM 33.6333 -84.1667 270° West 193 222 5,200 -840 Descending Atlanta TRACON